createdAt,value
2018-12-03T00:01:40.388Z,16.87
2018-12-03T00:03:42.564Z,16.33
2018-12-03T00:05:44.764Z,15.80
2018-12-03T00:07:46.911Z,14.93
2018-12-03T00:09:49.051Z,17.40
2018-12-03T00:11:51.215Z,16.33
2018-12-03T00:13:53.357Z,14.80
2018-12-03T00:15:55.504Z,14.47
2018-12-03T00:17:57.760Z,12.77
2018-12-03T00:19:59.915Z,15.60
2018-12-03T00:22:02.100Z,14.10
2018-12-03T00:24:04.812Z,15.57
2018-12-03T00:26:06.963Z,14.73
2018-12-03T00:28:09.101Z,15.00
2018-12-03T00:30:11.252Z,13.00
2018-12-03T00:32:13.539Z,13.53
2018-12-03T00:34:15.727Z,14.77
2018-12-03T00:36:17.895Z,13.37
2018-12-03T00:38:20.275Z,13.50
2018-12-03T00:40:22.467Z,14.40
2018-12-03T00:42:24.644Z,13.40
2018-12-03T00:44:27.206Z,13.30
2018-12-03T00:46:29.356Z,14.07
2018-12-03T00:48:31.624Z,13.90
2018-12-03T00:50:34.024Z,13.73
2018-12-03T00:52:36.231Z,13.70
2018-12-03T00:54:38.372Z,14.27
2018-12-03T00:56:40.539Z,16.50
2018-12-03T00:58:42.698Z,15.83
2018-12-03T01:00:44.852Z,14.10
2018-12-03T01:02:47.016Z,16.43
2018-12-03T01:04:49.179Z,16.90
2018-12-03T01:06:51.348Z,15.07
2018-12-03T01:08:53.689Z,18.20
2018-12-03T01:10:55.855Z,16.90
2018-12-03T01:12:58.011Z,16.87
2018-12-03T01:15:00.245Z,17.40
2018-12-03T01:17:02.433Z,18.20
2018-12-03T01:19:04.616Z,19.10
2018-12-03T01:21:06.783Z,19.43
2018-12-03T01:23:08.957Z,19.20
2018-12-03T01:25:11.136Z,19.97
2018-12-03T01:27:13.325Z,18.67
2018-12-03T01:29:15.472Z,20.00
2018-12-03T01:31:17.694Z,20.40
2018-12-03T01:33:19.865Z,20.73
2018-12-03T01:35:22.039Z,20.90
2018-12-03T01:37:24.192Z,20.23
2018-12-03T01:39:26.464Z,20.90
2018-12-03T01:41:28.632Z,19.83
2018-12-03T01:43:30.831Z,23.07
2018-12-03T01:45:33.264Z,21.40
2018-12-03T01:47:35.447Z,21.03
2018-12-03T01:49:37.601Z,21.83
2018-12-03T01:51:39.756Z,23.10
2018-12-03T01:53:42.000Z,23.60
2018-12-03T01:55:44.155Z,21.70
2018-12-03T01:57:46.331Z,23.87
2018-12-03T01:59:48.489Z,21.80
2018-12-03T02:01:50.648Z,21.83
2018-12-03T02:03:52.820Z,22.23
2018-12-03T02:05:54.983Z,22.10
2018-12-03T02:07:57.143Z,22.57
2018-12-03T02:09:59.323Z,20.80
2018-12-03T02:12:01.515Z,21.90
2018-12-03T02:14:03.695Z,22.80
2018-12-03T02:16:05.999Z,22.30
2018-12-03T02:18:08.163Z,22.70
2018-12-03T02:20:11.699Z,20.40
2018-12-03T02:22:13.876Z,22.63
2018-12-03T02:24:16.045Z,22.77
2018-12-03T02:26:18.203Z,20.90
2018-12-03T02:28:20.621Z,21.73
2018-12-03T02:30:22.855Z,21.20
2018-12-03T02:32:25.015Z,20.40
2018-12-03T02:34:27.183Z,23.03
2018-12-03T02:36:29.340Z,25.00
2018-12-03T02:38:31.616Z,23.50
2018-12-03T02:40:33.760Z,21.70
2018-12-03T02:42:36.023Z,22.30
2018-12-03T02:44:38.447Z,22.17
2018-12-03T02:46:40.657Z,23.00
2018-12-03T02:48:42.947Z,22.63
2018-12-03T02:50:45.115Z,20.50
2018-12-03T02:52:47.298Z,21.83
2018-12-03T02:54:49.468Z,20.50
2018-12-03T02:56:51.636Z,21.23
2018-12-03T02:58:53.892Z,21.93
2018-12-03T03:00:56.040Z,22.27
2018-12-03T03:02:58.196Z,20.90
2018-12-03T03:05:00.520Z,21.10
2018-12-03T03:07:02.723Z,21.10
2018-12-03T03:09:06.605Z,20.00
2018-12-03T03:11:08.775Z,20.43
2018-12-03T03:13:10.927Z,23.40
2018-12-03T03:15:13.488Z,23.00
2018-12-03T03:17:15.800Z,19.03
2018-12-03T03:19:17.966Z,20.60
2018-12-03T03:21:20.158Z,21.90
2018-12-03T03:23:22.419Z,20.43
2018-12-03T03:25:24.592Z,20.87
2018-12-03T03:27:26.748Z,21.13
2018-12-03T03:29:28.943Z,21.47
2018-12-03T03:31:31.081Z,22.50
2018-12-03T03:33:33.236Z,20.93
2018-12-03T03:35:35.547Z,22.50
2018-12-03T03:37:37.692Z,22.00
2018-12-03T03:39:39.848Z,22.10
2018-12-03T03:41:42.357Z,23.17
2018-12-03T03:43:44.510Z,23.23
2018-12-03T03:45:46.652Z,21.43
2018-12-03T03:47:49.059Z,23.07
2018-12-03T03:49:51.213Z,23.03
2018-12-03T03:51:53.389Z,23.30
2018-12-03T03:53:55.565Z,24.80
2018-12-03T03:55:57.752Z,23.60
2018-12-03T03:57:59.912Z,24.57
2018-12-03T04:00:02.194Z,24.53
2018-12-03T04:02:04.413Z,24.03
2018-12-03T04:04:06.588Z,25.27
2018-12-03T04:06:08.796Z,22.70
2018-12-03T04:08:10.962Z,21.50
2018-12-03T04:10:13.512Z,23.90
2018-12-03T04:12:15.679Z,23.10
2018-12-03T04:14:17.829Z,26.33
2018-12-03T04:16:19.988Z,24.87
2018-12-03T04:18:22.211Z,25.07
2018-12-03T04:20:24.384Z,23.53
2018-12-03T04:22:26.573Z,22.87
2018-12-03T04:24:28.928Z,22.57
2018-12-03T04:26:31.089Z,23.67
2018-12-03T04:28:33.308Z,24.47
2018-12-03T04:30:35.493Z,22.60
2018-12-03T04:32:37.664Z,24.50
2018-12-03T04:34:39.804Z,22.90
2018-12-03T04:36:42.016Z,22.57
2018-12-03T04:38:44.133Z,22.77
2018-12-03T04:40:46.293Z,21.53
2018-12-03T04:42:48.885Z,22.13
2018-12-03T04:44:51.373Z,22.67
2018-12-03T04:46:53.559Z,21.50
2018-12-03T04:48:55.801Z,21.33
2018-12-03T04:50:57.979Z,23.27
2018-12-03T04:53:00.160Z,23.23
2018-12-03T04:55:03.459Z,23.77
2018-12-03T04:57:05.602Z,21.00
2018-12-03T04:59:07.765Z,22.23
2018-12-03T05:01:10.060Z,20.67
2018-12-03T05:03:12.204Z,20.93
2018-12-03T05:05:14.389Z,21.70
2018-12-03T05:07:16.565Z,22.13
2018-12-03T05:09:18.739Z,23.50
2018-12-03T05:11:20.892Z,22.40
2018-12-03T05:13:23.048Z,21.37
2018-12-03T05:15:25.226Z,20.90
2018-12-03T05:17:27.381Z,21.40
2018-12-03T05:19:29.556Z,18.87
2018-12-03T05:21:31.727Z,24.07
2018-12-03T05:23:33.882Z,21.67
2018-12-03T05:25:36.045Z,20.47
2018-12-03T05:27:38.530Z,21.17
2018-12-03T05:29:40.673Z,21.90
2018-12-03T05:31:42.828Z,20.27
2018-12-03T05:33:44.991Z,22.30
2018-12-03T05:35:47.164Z,20.87
2018-12-03T05:37:49.351Z,21.37
2018-12-03T05:39:51.517Z,20.70
2018-12-03T05:41:53.667Z,23.93
2018-12-03T05:43:55.836Z,21.37
2018-12-03T05:45:58.100Z,21.37
2018-12-03T05:48:00.261Z,22.63
2018-12-03T05:50:02.478Z,21.80
2018-12-03T05:52:04.686Z,21.63
2018-12-03T05:54:06.839Z,22.03
2018-12-03T05:56:08.991Z,22.37
2018-12-03T05:58:11.177Z,21.50
2018-12-03T06:00:13.801Z,21.20
2018-12-03T06:02:15.939Z,19.60
2018-12-03T06:04:18.299Z,20.83
2018-12-03T06:06:20.468Z,20.60
2018-12-03T06:08:22.631Z,20.83
2018-12-03T06:10:24.794Z,18.20
2018-12-03T06:12:26.935Z,21.00
2018-12-03T06:14:29.093Z,21.27
2018-12-03T06:16:31.280Z,23.00
2018-12-03T06:18:33.440Z,21.03
2018-12-03T06:20:35.600Z,20.17
2018-12-03T06:22:37.804Z,20.53
2018-12-03T06:24:40.003Z,19.50
2018-12-03T06:26:42.196Z,20.30
2018-12-03T06:28:44.476Z,20.00
2018-12-03T06:30:46.612Z,21.13
2018-12-03T06:32:48.971Z,21.03
2018-12-03T06:34:51.099Z,21.10
2018-12-03T06:36:53.294Z,21.00
2018-12-03T06:38:55.440Z,21.23
2018-12-03T06:40:57.620Z,20.07
2018-12-03T06:42:59.772Z,21.40
2018-12-03T06:45:01.921Z,22.10
2018-12-03T06:47:04.955Z,21.73
2018-12-03T06:49:07.097Z,20.27
2018-12-03T06:51:09.300Z,18.43
2018-12-03T06:53:11.460Z,18.97
2018-12-03T06:55:13.651Z,20.50
2018-12-03T06:57:15.825Z,19.97
2018-12-03T06:59:18.228Z,17.50
2018-12-03T07:01:20.359Z,18.93
2018-12-03T07:03:22.559Z,18.67
2018-12-03T07:05:24.716Z,18.60
2018-12-03T07:07:26.969Z,15.13
2018-12-03T07:09:29.123Z,13.23
2018-12-03T07:11:31.281Z,12.80
2018-12-03T07:13:33.615Z,13.30
2018-12-03T07:15:36.719Z,12.30
2018-12-03T07:17:38.898Z,11.60
2018-12-03T07:19:41.092Z,10.07
2018-12-03T07:21:43.248Z,11.53
2018-12-03T07:23:45.520Z,11.27
2018-12-03T07:25:47.737Z,13.83
2018-12-03T07:27:49.979Z,10.03
2018-12-03T07:29:53.054Z,11.50
2018-12-03T07:31:54.525Z,10.87
2018-12-03T07:33:56.715Z,12.17
2018-12-03T07:35:58.864Z,12.63
2018-12-03T07:38:01.384Z,12.40
2018-12-03T07:40:03.940Z,11.47
2018-12-03T07:42:06.118Z,12.90
2018-12-03T07:44:08.367Z,13.90
2018-12-03T07:46:11.096Z,12.00
2018-12-03T07:48:13.254Z,13.43
2018-12-03T07:50:16.984Z,14.00
2018-12-03T07:52:19.168Z,12.50
2018-12-03T07:54:21.364Z,14.60
2018-12-03T07:56:23.546Z,14.17
2018-12-03T07:58:25.716Z,12.73
2018-12-03T08:00:30.533Z,14.03
2018-12-03T08:02:32.735Z,11.63
2018-12-03T08:04:34.918Z,11.93
2018-12-03T08:06:37.101Z,13.20
2018-12-03T08:08:39.341Z,14.40
2018-12-03T08:10:42.480Z,11.87
2018-12-03T08:12:45.185Z,13.40
2018-12-03T08:14:47.356Z,13.10
2018-12-03T08:16:49.557Z,10.93
2018-12-03T08:18:51.796Z,12.03
2018-12-03T08:20:57.837Z,13.30
2018-12-03T08:23:01.240Z,11.60
2018-12-03T08:25:03.612Z,11.73
2018-12-03T08:27:05.774Z,11.00
2018-12-03T08:29:08.040Z,10.50
2018-12-03T08:31:10.460Z,10.07
2018-12-03T08:33:12.674Z,10.20
2018-12-03T08:35:15.395Z,9.93
2018-12-03T08:37:17.648Z,10.63
2018-12-03T08:39:19.845Z,10.50
2018-12-03T08:41:22.051Z,9.63
2018-12-03T08:43:24.260Z,8.60
2018-12-03T08:45:26.423Z,9.87
2018-12-03T08:47:28.583Z,9.80
2018-12-03T08:49:30.736Z,9.50
2018-12-03T08:51:32.911Z,9.47
2018-12-03T08:53:35.101Z,9.20
2018-12-03T08:55:37.333Z,10.13
2018-12-03T08:57:39.510Z,8.47
2018-12-03T08:59:41.683Z,8.97
2018-12-03T09:01:43.896Z,8.33
2018-12-03T09:03:48.661Z,8.20
2018-12-03T09:05:50.885Z,8.70
2018-12-03T09:07:53.089Z,8.10
2018-12-03T09:09:55.312Z,8.60
2018-12-03T09:12:03.520Z,10.10
2018-12-03T09:14:05.720Z,8.30
2018-12-03T09:16:07.920Z,8.03
2018-12-03T09:18:10.102Z,6.93
2018-12-03T09:20:12.284Z,7.73
2018-12-03T09:22:14.429Z,8.30
2018-12-03T09:24:16.615Z,7.63
2018-12-03T09:26:18.853Z,8.00
2018-12-03T09:28:20.979Z,7.70
2018-12-03T09:30:27.690Z,9.10
2018-12-03T09:32:30.304Z,6.97
2018-12-03T09:34:32.499Z,7.60
2018-12-03T09:36:34.653Z,8.10
2018-12-03T09:38:42.615Z,8.00
2018-12-03T09:40:45.792Z,7.30
2018-12-03T09:42:47.976Z,6.30
2018-12-03T09:44:50.148Z,7.60
2018-12-03T09:46:52.331Z,6.50
2018-12-03T09:48:54.892Z,6.63
2018-12-03T09:50:57.102Z,8.70
2018-12-03T09:52:59.313Z,8.00
2018-12-03T09:55:01.464Z,7.40
2018-12-03T09:57:03.715Z,6.37
2018-12-03T09:59:10.007Z,7.30
2018-12-03T10:01:14.306Z,6.40
2018-12-03T10:03:18.769Z,6.50
2018-12-03T10:05:21.426Z,7.43
2018-12-03T10:43:09.993Z,5.60
2018-12-03T10:45:15.180Z,6.20
2018-12-03T10:47:17.497Z,5.20
2018-12-03T10:49:19.817Z,5.13
2018-12-03T10:51:22.148Z,4.93
2018-12-03T10:53:26.251Z,5.17
2018-12-03T11:10:50.991Z,5.77
2018-12-03T11:12:53.293Z,4.80
2018-12-03T11:14:55.573Z,5.40
2018-12-03T11:16:57.845Z,6.40
2018-12-03T11:19:00.130Z,7.57
2018-12-03T11:21:02.965Z,4.80
2018-12-03T11:23:06.327Z,6.47
2018-12-03T11:25:09.905Z,4.93
2018-12-03T11:27:12.213Z,5.80
2018-12-03T11:29:15.078Z,5.33
2018-12-03T11:31:19.828Z,5.43
2018-12-03T11:33:23.963Z,5.23
2018-12-03T11:35:28.037Z,6.67
2018-12-03T11:37:30.244Z,7.00
2018-12-03T11:39:39.545Z,5.90
2018-12-03T11:41:41.868Z,5.03
2018-12-03T11:43:44.129Z,6.27
2018-12-03T11:45:47.402Z,5.07
2018-12-03T11:47:49.895Z,5.00
2018-12-03T11:49:52.203Z,4.97
2018-12-03T11:51:54.934Z,5.37
2018-12-03T11:53:57.263Z,5.40
2018-12-03T11:55:59.483Z,5.43
2018-12-03T11:58:01.825Z,5.60
2018-12-03T12:00:06.529Z,5.97
2018-12-03T12:02:08.966Z,4.60
2018-12-03T12:04:11.138Z,5.10
2018-12-03T12:06:13.481Z,5.30
2018-12-03T12:08:15.670Z,4.97
2018-12-03T12:10:17.850Z,5.30
2018-12-03T12:12:20.076Z,6.10
2018-12-03T12:14:23.309Z,5.67
2018-12-03T12:16:25.512Z,5.30
2018-12-03T12:18:27.745Z,5.20
2018-12-03T12:20:30.210Z,6.33
2018-12-03T12:22:32.500Z,7.53
2018-12-03T12:24:34.748Z,4.80
2018-12-03T12:26:36.944Z,5.27
2018-12-03T12:28:39.162Z,5.23
2018-12-03T12:30:41.388Z,5.67
2018-12-03T12:32:43.570Z,7.07
2018-12-03T12:34:45.768Z,5.57
2018-12-03T12:36:48.392Z,5.50
2018-12-03T12:38:50.580Z,7.90
2018-12-03T12:40:52.760Z,5.50
2018-12-03T12:42:55.044Z,5.47
2018-12-03T12:44:57.208Z,5.33
2018-12-03T12:46:59.388Z,5.30
2018-12-03T12:49:01.778Z,6.07
2018-12-03T12:51:04.196Z,6.20
2018-12-03T12:53:07.211Z,5.00
2018-12-03T12:55:09.473Z,5.13
2018-12-03T12:57:11.753Z,5.10
2018-12-03T12:59:14.083Z,6.00
2018-12-03T13:01:16.272Z,6.70
2018-12-03T13:03:18.465Z,5.87
2018-12-03T13:05:20.897Z,5.20
2018-12-03T13:07:23.105Z,5.90
2018-12-03T13:09:25.303Z,5.30
2018-12-03T13:11:27.797Z,5.57
2018-12-03T13:13:30.089Z,5.70
2018-12-03T13:15:32.261Z,5.57
2018-12-03T13:17:34.575Z,5.30
2018-12-03T13:19:36.829Z,7.50
2018-12-03T13:21:39.179Z,6.63
2018-12-03T13:23:41.377Z,6.10
2018-12-03T13:25:43.655Z,6.30
2018-12-03T13:27:46.265Z,6.03
2018-12-03T13:29:48.457Z,5.60
2018-12-03T13:31:50.666Z,5.27
2018-12-03T13:33:53.007Z,5.83
2018-12-03T13:35:55.229Z,5.33
2018-12-03T13:37:57.449Z,5.90
2018-12-03T13:39:59.629Z,5.53
2018-12-03T13:42:01.851Z,5.63
2018-12-03T13:44:04.847Z,6.10
2018-12-03T13:46:07.388Z,6.00
2018-12-03T13:48:09.871Z,6.40
2018-12-03T13:50:12.833Z,6.00
2018-12-03T13:52:15.022Z,6.17
2018-12-03T13:54:17.287Z,5.97
2018-12-03T13:56:19.467Z,6.80
2018-12-03T13:58:21.764Z,6.50
2018-12-03T14:00:24.629Z,6.03
2018-12-03T14:02:26.941Z,6.40
2018-12-03T14:04:29.273Z,6.30
2018-12-03T14:06:37.399Z,5.43
2018-12-03T14:08:43.148Z,6.73
2018-12-03T14:10:51.112Z,4.93
2018-12-03T14:13:02.808Z,5.13
2018-12-03T14:15:21.340Z,5.43
2018-12-03T14:17:26.219Z,5.30
2018-12-03T14:19:29.249Z,6.00
2018-12-03T14:21:35.144Z,5.50
2018-12-03T14:23:37.853Z,5.40
2018-12-03T14:25:40.162Z,5.13
2018-12-03T14:27:42.345Z,4.87
2018-12-03T14:29:44.517Z,5.10
2018-12-03T14:31:46.700Z,5.60
2018-12-03T14:33:48.965Z,4.90
2018-12-03T14:35:51.270Z,6.00
2018-12-03T14:37:53.492Z,5.30
2018-12-03T14:39:55.795Z,5.73
2018-12-03T14:41:58.083Z,5.30
2018-12-03T14:44:00.305Z,5.57
2018-12-03T14:46:02.661Z,6.27
2018-12-03T14:48:04.973Z,5.07
2018-12-03T14:50:08.023Z,7.07
2018-12-03T14:52:10.659Z,5.10
2018-12-03T14:54:13.016Z,5.73
2018-12-03T14:56:15.200Z,5.40
2018-12-03T14:58:17.359Z,5.80
2018-12-03T15:00:19.561Z,6.37
2018-12-03T15:02:21.726Z,6.80
2018-12-03T15:04:23.901Z,5.97
2018-12-03T15:06:26.109Z,6.07
2018-12-03T15:08:28.376Z,6.23
2018-12-03T15:10:30.678Z,6.70
2018-12-03T15:12:32.952Z,7.10
2018-12-03T15:14:35.227Z,5.73
2018-12-03T15:16:37.736Z,6.40
2018-12-03T15:18:40.097Z,5.93
2018-12-03T15:20:42.569Z,6.20
2018-12-03T15:22:44.724Z,6.37
2018-12-03T15:24:47.578Z,6.00
2018-12-03T15:26:50.080Z,6.27
2018-12-03T15:28:52.280Z,6.47
2018-12-03T15:30:54.572Z,6.17
2018-12-03T15:32:56.865Z,5.10
2018-12-03T15:34:59.091Z,5.50
2018-12-03T15:37:01.240Z,6.97
2018-12-03T15:39:05.848Z,6.47
2018-12-03T15:41:08.259Z,4.87
2018-12-03T15:43:10.480Z,5.07
2018-12-03T15:45:13.721Z,6.00
2018-12-03T15:47:15.999Z,5.80
2018-12-03T15:49:18.185Z,5.53
2018-12-03T15:51:20.417Z,6.40
2018-12-03T15:53:22.587Z,6.07
2018-12-03T15:55:24.865Z,5.67
2018-12-03T15:57:27.163Z,6.53
2018-12-03T15:59:29.428Z,6.60
2018-12-03T16:01:32.625Z,6.37
2018-12-03T16:03:34.861Z,6.20
2018-12-03T16:05:37.122Z,6.27
2018-12-03T16:07:39.348Z,6.40
2018-12-03T16:09:41.628Z,7.63
2018-12-03T16:11:43.917Z,6.60
2018-12-03T16:13:46.097Z,7.77
2018-12-03T16:15:48.263Z,6.63
2018-12-03T16:17:50.407Z,7.27
2018-12-03T16:19:52.573Z,7.77
2018-12-03T16:22:00.699Z,6.50
2018-12-03T16:24:02.980Z,6.93
2018-12-03T16:26:05.148Z,7.83
2018-12-03T16:28:07.444Z,8.17
2018-12-03T16:30:10.946Z,6.93
2018-12-03T16:32:13.176Z,6.93
2018-12-03T16:34:15.355Z,8.00
2018-12-03T16:36:17.983Z,7.87
2018-12-03T16:38:20.282Z,10.83
2018-12-03T16:40:22.468Z,8.80
2018-12-03T16:42:24.860Z,8.20
2018-12-03T16:44:27.040Z,8.10
2018-12-03T16:46:29.200Z,8.17
2018-12-03T16:48:31.378Z,8.17
2018-12-03T16:50:33.565Z,10.23
2018-12-03T16:52:35.772Z,10.60
2018-12-03T16:54:38.140Z,9.50
2018-12-03T16:56:40.443Z,9.17
2018-12-03T16:58:42.678Z,11.37
2018-12-03T17:00:44.951Z,10.60
2018-12-03T17:02:47.167Z,11.13
2018-12-03T17:04:49.431Z,9.83
2018-12-03T17:06:51.597Z,10.60
2018-12-03T17:08:54.708Z,12.07
2018-12-03T17:10:56.857Z,12.17
2018-12-03T17:12:59.155Z,10.77
2018-12-03T17:15:01.344Z,12.10
2018-12-03T17:17:03.646Z,12.23
2018-12-03T17:19:06.023Z,12.30
2018-12-03T17:21:14.077Z,11.60
2018-12-03T17:23:19.113Z,10.20
2018-12-03T17:25:22.523Z,11.53
2018-12-03T17:27:24.688Z,10.40
2018-12-03T17:29:26.965Z,13.50
2018-12-03T17:31:29.324Z,10.77
2018-12-03T17:33:32.027Z,11.20
2018-12-03T17:35:34.810Z,11.93
2018-12-03T17:37:36.958Z,12.90
2018-12-03T17:39:39.431Z,13.53
2018-12-03T17:41:42.030Z,12.30
2018-12-03T17:43:44.331Z,11.60
2018-12-03T17:45:46.887Z,11.57
2018-12-03T17:47:49.616Z,9.80
2018-12-03T17:49:51.828Z,12.53
2018-12-03T17:51:53.995Z,11.27
2018-12-03T17:53:56.605Z,10.80
2018-12-03T17:55:58.863Z,10.80
2018-12-03T17:58:01.171Z,11.70
2018-12-03T18:00:04.680Z,11.60
2018-12-03T18:02:06.851Z,10.67
2018-12-03T18:04:13.642Z,11.40
2018-12-03T18:06:21.544Z,12.00
2018-12-03T18:08:23.972Z,11.30
2018-12-03T18:10:29.111Z,11.80
2018-12-03T18:12:31.572Z,11.90
2018-12-03T18:14:33.767Z,10.30
2018-12-03T18:16:36.057Z,12.63
2018-12-03T18:18:38.348Z,12.47
2018-12-03T18:20:40.660Z,11.77
2018-12-03T18:22:42.868Z,11.17
2018-12-03T18:24:45.055Z,13.20
2018-12-03T18:26:47.259Z,14.07
2018-12-03T18:28:49.436Z,11.77
2018-12-03T18:30:51.703Z,12.00
2018-12-03T18:32:53.964Z,12.30
2018-12-03T18:34:56.164Z,11.10
2018-12-03T18:36:58.436Z,11.47
2018-12-03T18:39:00.657Z,13.33
2018-12-03T18:41:03.418Z,12.50
2018-12-03T18:43:06.288Z,13.43
2018-12-03T18:45:08.481Z,12.47
2018-12-03T18:47:10.649Z,11.60
2018-12-03T18:49:15.920Z,10.67
2018-12-03T18:51:18.057Z,11.60
2018-12-03T18:53:21.398Z,11.67
2018-12-03T18:55:28.996Z,10.53
2018-12-03T18:57:33.276Z,14.37
2018-12-03T18:59:35.747Z,13.13
2018-12-03T19:01:38.091Z,10.87
2018-12-03T19:03:40.248Z,11.20
2018-12-03T19:05:43.424Z,11.10
2018-12-03T19:07:54.831Z,11.07
2018-12-03T19:10:17.769Z,9.87
2018-12-03T19:12:19.946Z,10.60
2018-12-03T19:14:22.469Z,12.03
2018-12-03T19:16:24.691Z,11.90
2018-12-03T19:18:26.881Z,10.03
2018-12-03T19:20:29.088Z,11.37
2018-12-03T19:22:31.441Z,9.73
2018-12-03T19:24:33.576Z,12.30
2018-12-03T19:26:41.308Z,10.60
2018-12-03T19:28:43.609Z,10.90
2018-12-03T19:30:45.912Z,11.77
2018-12-03T19:32:48.180Z,12.63
2018-12-03T20:22:17.834Z,13.13
2018-12-03T20:24:22.912Z,10.67
2018-12-03T20:26:50.589Z,12.40
2018-12-03T20:29:26.281Z,11.60
2018-12-03T20:31:37.059Z,13.27
2018-12-03T20:33:50.059Z,12.40
2018-12-03T20:35:58.609Z,16.10
2018-12-03T20:38:03.401Z,15.47
2018-12-03T20:40:11.313Z,14.27
2018-12-03T20:42:13.802Z,11.43
2018-12-03T20:44:27.495Z,12.73
2018-12-03T20:46:41.254Z,11.20
2018-12-03T20:48:47.855Z,11.67
2018-12-03T20:50:56.552Z,12.33
2018-12-03T20:53:02.684Z,14.03
2018-12-03T21:50:04.498Z,20.57
2018-12-03T21:52:04.032Z,6.70
2018-12-03T21:54:06.211Z,3.97
2018-12-03T21:56:08.404Z,3.80
2018-12-03T21:58:10.610Z,3.40
2018-12-03T22:00:19.092Z,3.00
2018-12-03T22:02:24.036Z,3.43
2018-12-03T22:04:25.514Z,3.80
2018-12-03T22:06:27.803Z,4.60
2018-12-03T22:08:29.983Z,3.00
2018-12-03T22:10:32.200Z,3.83
2018-12-03T22:12:34.383Z,2.67
2018-12-03T22:14:36.537Z,3.20
2018-12-03T22:16:38.724Z,3.47
2018-12-03T22:18:40.993Z,2.70
2018-12-03T22:20:43.157Z,3.37
2018-12-03T22:22:45.896Z,4.23
2018-12-03T22:24:48.052Z,3.40
2018-12-03T22:26:50.234Z,3.50
2018-12-03T22:28:52.441Z,3.33
2018-12-03T22:30:54.624Z,3.73
2018-12-03T22:32:56.935Z,3.80
2018-12-03T22:34:59.196Z,4.20
2018-12-03T22:37:01.467Z,3.37
2018-12-03T22:39:05.087Z,2.60
2018-12-03T22:41:07.266Z,3.50
2018-12-03T22:43:09.411Z,2.50
2018-12-03T22:45:11.841Z,3.10
2018-12-03T22:47:14.028Z,2.80
2018-12-03T22:49:16.190Z,2.60
2018-12-03T22:51:18.363Z,3.17
2018-12-03T22:53:20.532Z,2.30
2018-12-03T22:55:22.700Z,2.90
2018-12-03T22:57:24.979Z,2.80
2018-12-03T22:59:27.172Z,3.00
2018-12-03T23:01:29.341Z,2.70
2018-12-03T23:03:31.543Z,12.63
2018-12-03T23:05:33.742Z,29.27
2018-12-03T23:07:35.941Z,8.60
2018-12-03T23:09:38.097Z,4.43
2018-12-03T23:11:40.281Z,3.23
2018-12-03T23:13:42.472Z,3.10
2018-12-03T23:15:44.901Z,2.80
2018-12-03T23:17:47.063Z,3.10
2018-12-03T23:19:49.223Z,2.57
2018-12-03T23:21:51.413Z,2.67
2018-12-03T23:23:53.692Z,2.90
2018-12-03T23:25:55.850Z,2.57
2018-12-03T23:27:58.032Z,2.50
2018-12-03T23:30:00.308Z,2.93
2018-12-03T23:32:02.603Z,2.63
2018-12-03T23:34:04.789Z,4.00
2018-12-03T23:36:07.249Z,3.47
2018-12-03T23:38:09.404Z,2.70
2018-12-03T23:40:11.690Z,3.37
2018-12-03T23:42:14.069Z,3.27
2018-12-03T23:44:16.355Z,3.30
2018-12-03T23:46:18.603Z,3.10
2018-12-03T23:48:20.875Z,3.00
2018-12-03T23:50:23.058Z,3.00
2018-12-03T23:52:25.223Z,2.57
2018-12-03T23:54:27.770Z,3.20
2018-12-03T23:56:29.947Z,2.70
2018-12-03T23:58:32.108Z,2.90
